sensor_id;sensor_type;location;lat;lon;timestamp;temperature;humidity
19039;DHT22;9652;49.014;12.052;2022-12-10T00:01:41;6.30;67.00
19039;DHT22;9652;49.014;12.052;2022-12-10T00:04:09;6.30;67.00
19039;DHT22;9652;49.014;12.052;2022-12-10T00:06:38;6.30;67.10
19039;DHT22;9652;49.014;12.052;2022-12-10T00:09:08;6.30;67.00
19039;DHT22;9652;49.014;12.052;2022-12-10T00:11:39;6.30;67.00
19039;DHT22;9652;49.014;12.052;2022-12-10T00:14:08;6.30;67.00
19039;DHT22;9652;49.014;12.052;2022-12-10T00:16:36;6.30;67.00
19039;DHT22;9652;49.014;12.052;2022-12-10T00:19:04;6.30;67.10
19039;DHT22;9652;49.014;12.052;2022-12-10T00:21:33;6.40;67.20
19039;DHT22;9652;49.014;12.052;2022-12-10T00:24:01;6.40;67.40
19039;DHT22;9652;49.014;12.052;2022-12-10T00:26:31;6.40;67.40
19039;DHT22;9652;49.014;12.052;2022-12-10T00:29:04;6.40;67.40
19039;DHT22;9652;49.014;12.052;2022-12-10T00:31:35;6.40;67.40
19039;DHT22;9652;49.014;12.052;2022-12-10T00:34:05;6.40;68.10
19039;DHT22;9652;49.014;12.052;2022-12-10T00:36:35;6.40;67.30
19039;DHT22;9652;49.014;12.052;2022-12-10T00:39:05;6.50;67.30
19039;DHT22;9652;49.014;12.052;2022-12-10T00:41:32;6.50;67.20
19039;DHT22;9652;49.014;12.052;2022-12-10T00:44:02;6.50;67.10
19039;DHT22;9652;49.014;12.052;2022-12-10T00:46:29;6.50;67.10
19039;DHT22;9652;49.014;12.052;2022-12-10T00:48:57;6.50;67.20
19039;DHT22;9652;49.014;12.052;2022-12-10T00:51:25;6.50;67.20
19039;DHT22;9652;49.014;12.052;2022-12-10T00:53:55;6.50;67.30
19039;DHT22;9652;49.014;12.052;2022-12-10T00:56:25;6.50;67.30
19039;DHT22;9652;49.014;12.052;2022-12-10T00:58:54;6.50;67.30
19039;DHT22;9652;49.014;12.052;2022-12-10T01:01:26;6.50;67.20
19039;DHT22;9652;49.014;12.052;2022-12-10T01:03:56;6.50;67.20
19039;DHT22;9652;49.014;12.052;2022-12-10T01:06:26;6.50;66.90
19039;DHT22;9652;49.014;12.052;2022-12-10T01:08:56;6.50;66.90
19039;DHT22;9652;49.014;12.052;2022-12-10T01:11:26;6.60;66.80
19039;DHT22;9652;49.014;12.052;2022-12-10T01:13:56;6.50;66.70
19039;DHT22;9652;49.014;12.052;2022-12-10T01:16:26;6.50;66.70
19039;DHT22;9652;49.014;12.052;2022-12-10T01:18:54;6.50;66.80
19039;DHT22;9652;49.014;12.052;2022-12-10T01:21:23;6.50;66.80
19039;DHT22;9652;49.014;12.052;2022-12-10T01:23:52;6.50;66.70
19039;DHT22;9652;49.014;12.052;2022-12-10T01:26:22;6.40;66.60
19039;DHT22;9652;49.014;12.052;2022-12-10T01:28:51;6.50;66.70
19039;DHT22;9652;49.014;12.052;2022-12-10T01:31:21;6.50;66.90
19039;DHT22;9652;49.014;12.052;2022-12-10T01:33:51;6.50;67.10
19039;DHT22;9652;49.014;12.052;2022-12-10T01:36:20;6.50;67.10
19039;DHT22;9652;49.014;12.052;2022-12-10T01:38:48;6.50;67.10
19039;DHT22;9652;49.014;12.052;2022-12-10T01:41:17;6.50;67.00
19039;DHT22;9652;49.014;12.052;2022-12-10T01:43:51;6.50;67.10
19039;DHT22;9652;49.014;12.052;2022-12-10T01:46:22;6.50;67.00
19039;DHT22;9652;49.014;12.052;2022-12-10T01:48:51;6.40;66.90
19039;DHT22;9652;49.014;12.052;2022-12-10T01:51:18;6.50;67.10
19039;DHT22;9652;49.014;12.052;2022-12-10T01:53:46;6.40;67.10
19039;DHT22;9652;49.014;12.052;2022-12-10T01:56:17;6.40;67.10
19039;DHT22;9652;49.014;12.052;2022-12-10T01:58:46;6.40;67.10
19039;DHT22;9652;49.014;12.052;2022-12-10T02:01:16;6.40;67.20
19039;DHT22;9652;49.014;12.052;2022-12-10T02:03:59;6.50;67.20
19039;DHT22;9652;49.014;12.052;2022-12-10T02:06:45;6.50;67.30
19039;DHT22;9652;49.014;12.052;2022-12-10T02:09:23;6.50;67.30
19039;DHT22;9652;49.014;12.052;2022-12-10T02:12:06;6.50;67.40
19039;DHT22;9652;49.014;12.052;2022-12-10T02:14:46;6.50;67.50
19039;DHT22;9652;49.014;12.052;2022-12-10T02:17:24;6.50;67.50
19039;DHT22;9652;49.014;12.052;2022-12-10T02:20:04;6.50;67.40
19039;DHT22;9652;49.014;12.052;2022-12-10T02:22:40;6.50;67.40
19039;DHT22;9652;49.014;12.052;2022-12-10T02:25:15;6.60;67.40
19039;DHT22;9652;49.014;12.052;2022-12-10T02:27:52;6.60;67.30
19039;DHT22;9652;49.014;12.052;2022-12-10T02:30:28;6.60;67.40
19039;DHT22;9652;49.014;12.052;2022-12-10T02:32:58;6.60;67.30
19039;DHT22;9652;49.014;12.052;2022-12-10T02:35:31;6.60;67.20
19039;DHT22;9652;49.014;12.052;2022-12-10T02:38:06;6.60;67.30
19039;DHT22;9652;49.014;12.052;2022-12-10T02:40:43;6.60;67.20
19039;DHT22;9652;49.014;12.052;2022-12-10T02:43:15;6.60;67.20
19039;DHT22;9652;49.014;12.052;2022-12-10T02:45:47;6.60;67.20
19039;DHT22;9652;49.014;12.052;2022-12-10T02:48:14;6.60;67.20
19039;DHT22;9652;49.014;12.052;2022-12-10T02:50:43;6.70;67.20
19039;DHT22;9652;49.014;12.052;2022-12-10T02:53:10;6.70;67.20
19039;DHT22;9652;49.014;12.052;2022-12-10T02:55:47;6.70;67.10
19039;DHT22;9652;49.014;12.052;2022-12-10T02:58:28;6.70;67.10
19039;DHT22;9652;49.014;12.052;2022-12-10T03:01:07;6.60;66.90
19039;DHT22;9652;49.014;12.052;2022-12-10T03:03:44;6.70;67.00
19039;DHT22;9652;49.014;12.052;2022-12-10T03:06:20;6.70;67.00
19039;DHT22;9652;49.014;12.052;2022-12-10T03:08:57;6.70;67.00
19039;DHT22;9652;49.014;12.052;2022-12-10T03:11:28;6.60;66.90
19039;DHT22;9652;49.014;12.052;2022-12-10T03:13:59;6.60;67.10
19039;DHT22;9652;49.014;12.052;2022-12-10T03:16:34;6.60;67.00
19039;DHT22;9652;49.014;12.052;2022-12-10T03:19:09;6.60;67.00
19039;DHT22;9652;49.014;12.052;2022-12-10T03:21:41;6.60;67.10
19039;DHT22;9652;49.014;12.052;2022-12-10T03:24:11;6.60;67.20
19039;DHT22;9652;49.014;12.052;2022-12-10T03:26:41;6.60;67.20
19039;DHT22;9652;49.014;12.052;2022-12-10T03:29:15;6.60;67.40
19039;DHT22;9652;49.014;12.052;2022-12-10T03:31:49;6.60;67.20
19039;DHT22;9652;49.014;12.052;2022-12-10T03:34:19;6.60;66.90
19039;DHT22;9652;49.014;12.052;2022-12-10T03:36:47;6.60;66.80
19039;DHT22;9652;49.014;12.052;2022-12-10T03:39:16;6.60;66.80
19039;DHT22;9652;49.014;12.052;2022-12-10T03:41:44;6.60;66.80
19039;DHT22;9652;49.014;12.052;2022-12-10T03:44:11;6.60;66.80
19039;DHT22;9652;49.014;12.052;2022-12-10T03:46:38;6.50;66.90
19039;DHT22;9652;49.014;12.052;2022-12-10T03:49:07;6.60;67.10
19039;DHT22;9652;49.014;12.052;2022-12-10T03:51:34;6.50;67.10
19039;DHT22;9652;49.014;12.052;2022-12-10T03:54:01;6.60;67.10
19039;DHT22;9652;49.014;12.052;2022-12-10T03:56:28;6.60;67.10
19039;DHT22;9652;49.014;12.052;2022-12-10T03:58:55;6.60;67.10
19039;DHT22;9652;49.014;12.052;2022-12-10T04:01:23;6.50;67.10
19039;DHT22;9652;49.014;12.052;2022-12-10T04:03:50;6.60;67.00
19039;DHT22;9652;49.014;12.052;2022-12-10T04:06:19;6.60;66.90
19039;DHT22;9652;49.014;12.052;2022-12-10T04:08:47;6.50;66.70
19039;DHT22;9652;49.014;12.052;2022-12-10T04:11:15;6.50;66.70
19039;DHT22;9652;49.014;12.052;2022-12-10T04:13:43;6.50;66.60
19039;DHT22;9652;49.014;12.052;2022-12-10T04:16:30;6.50;66.70
19039;DHT22;9652;49.014;12.052;2022-12-10T04:18:59;6.40;66.70
19039;DHT22;9652;49.014;12.052;2022-12-10T04:21:30;6.40;66.70
19039;DHT22;9652;49.014;12.052;2022-12-10T04:24:18;6.40;66.80
19039;DHT22;9652;49.014;12.052;2022-12-10T04:27:07;6.40;66.90
19039;DHT22;9652;49.014;12.052;2022-12-10T04:29:37;6.30;67.00
19039;DHT22;9652;49.014;12.052;2022-12-10T04:32:04;6.30;67.10
19039;DHT22;9652;49.014;12.052;2022-12-10T04:34:31;6.20;67.20
19039;DHT22;9652;49.014;12.052;2022-12-10T04:37:01;6.20;67.10
19039;DHT22;9652;49.014;12.052;2022-12-10T04:39:29;6.30;67.30
19039;DHT22;9652;49.014;12.052;2022-12-10T04:41:57;6.20;67.30
19039;DHT22;9652;49.014;12.052;2022-12-10T04:44:25;6.20;67.40
19039;DHT22;9652;49.014;12.052;2022-12-10T04:46:53;6.20;67.30
19039;DHT22;9652;49.014;12.052;2022-12-10T04:49:20;6.30;67.40
19039;DHT22;9652;49.014;12.052;2022-12-10T04:51:47;6.30;67.40
19039;DHT22;9652;49.014;12.052;2022-12-10T04:54:16;6.30;68.30
19039;DHT22;9652;49.014;12.052;2022-12-10T04:56:44;6.30;67.50
19039;DHT22;9652;49.014;12.052;2022-12-10T04:59:12;6.30;67.60
19039;DHT22;9652;49.014;12.052;2022-12-10T05:01:39;6.30;67.70
19039;DHT22;9652;49.014;12.052;2022-12-10T05:04:09;6.30;67.70
19039;DHT22;9652;49.014;12.052;2022-12-10T05:06:38;6.30;67.50
19039;DHT22;9652;49.014;12.052;2022-12-10T05:09:06;6.40;67.60
19039;DHT22;9652;49.014;12.052;2022-12-10T05:11:35;6.40;67.60
19039;DHT22;9652;49.014;12.052;2022-12-10T05:14:03;6.40;67.60
19039;DHT22;9652;49.014;12.052;2022-12-10T05:16:32;6.40;67.60
19039;DHT22;9652;49.014;12.052;2022-12-10T05:19:00;6.40;67.60
19039;DHT22;9652;49.014;12.052;2022-12-10T05:21:29;6.40;67.60
19039;DHT22;9652;49.014;12.052;2022-12-10T05:24:10;6.40;67.50
19039;DHT22;9652;49.014;12.052;2022-12-10T05:26:39;6.40;67.60
19039;DHT22;9652;49.014;12.052;2022-12-10T05:29:06;6.40;67.60
19039;DHT22;9652;49.014;12.052;2022-12-10T05:31:35;6.40;67.60
19039;DHT22;9652;49.014;12.052;2022-12-10T05:34:02;6.40;67.60
19039;DHT22;9652;49.014;12.052;2022-12-10T05:36:31;6.50;67.60
19039;DHT22;9652;49.014;12.052;2022-12-10T05:38:59;6.50;67.50
19039;DHT22;9652;49.014;12.052;2022-12-10T05:41:28;6.50;67.50
19039;DHT22;9652;49.014;12.052;2022-12-10T05:43:58;6.50;67.50
19039;DHT22;9652;49.014;12.052;2022-12-10T05:46:27;6.50;67.40
19039;DHT22;9652;49.014;12.052;2022-12-10T05:48:56;6.50;67.20
19039;DHT22;9652;49.014;12.052;2022-12-10T05:51:25;6.40;67.10
19039;DHT22;9652;49.014;12.052;2022-12-10T05:53:54;6.50;67.20
19039;DHT22;9652;49.014;12.052;2022-12-10T05:56:24;6.40;67.10
19039;DHT22;9652;49.014;12.052;2022-12-10T05:58:53;6.40;67.10
19039;DHT22;9652;49.014;12.052;2022-12-10T06:01:26;6.40;67.10
19039;DHT22;9652;49.014;12.052;2022-12-10T06:03:54;6.30;67.00
19039;DHT22;9652;49.014;12.052;2022-12-10T06:06:22;6.30;67.10
19039;DHT22;9652;49.014;12.052;2022-12-10T06:08:51;6.30;67.20
19039;DHT22;9652;49.014;12.052;2022-12-10T06:11:19;6.30;67.20
19039;DHT22;9652;49.014;12.052;2022-12-10T06:13:46;6.30;68.10
19039;DHT22;9652;49.014;12.052;2022-12-10T06:16:14;6.30;67.40
19039;DHT22;9652;49.014;12.052;2022-12-10T06:18:43;6.20;67.40
19039;DHT22;9652;49.014;12.052;2022-12-10T06:21:12;6.30;67.50
19039;DHT22;9652;49.014;12.052;2022-12-10T06:23:41;6.20;67.30
19039;DHT22;9652;49.014;12.052;2022-12-10T06:26:12;6.20;67.40
19039;DHT22;9652;49.014;12.052;2022-12-10T06:28:41;6.20;67.50
19039;DHT22;9652;49.014;12.052;2022-12-10T06:31:10;6.20;67.50
19039;DHT22;9652;49.014;12.052;2022-12-10T06:33:39;6.20;67.50
19039;DHT22;9652;49.014;12.052;2022-12-10T06:36:10;6.20;67.50
19039;DHT22;9652;49.014;12.052;2022-12-10T06:38:39;6.20;67.50
19039;DHT22;9652;49.014;12.052;2022-12-10T06:41:07;6.20;67.50
19039;DHT22;9652;49.014;12.052;2022-12-10T06:43:37;6.20;67.70
19039;DHT22;9652;49.014;12.052;2022-12-10T06:46:05;6.20;67.70
19039;DHT22;9652;49.014;12.052;2022-12-10T06:48:33;6.20;67.80
19039;DHT22;9652;49.014;12.052;2022-12-10T06:51:01;6.20;67.80
19039;DHT22;9652;49.014;12.052;2022-12-10T06:53:31;6.20;67.80
19039;DHT22;9652;49.014;12.052;2022-12-10T06:55:59;6.20;67.90
19039;DHT22;9652;49.014;12.052;2022-12-10T06:58:27;6.20;68.00
19039;DHT22;9652;49.014;12.052;2022-12-10T07:01:02;6.20;68.00
19039;DHT22;9652;49.014;12.052;2022-12-10T07:03:30;6.30;68.10
19039;DHT22;9652;49.014;12.052;2022-12-10T07:05:58;6.20;68.00
19039;DHT22;9652;49.014;12.052;2022-12-10T07:08:25;6.30;68.00
19039;DHT22;9652;49.014;12.052;2022-12-10T07:10:54;6.30;68.00
19039;DHT22;9652;49.014;12.052;2022-12-10T07:13:22;6.30;68.80
19039;DHT22;9652;49.014;12.052;2022-12-10T07:15:50;6.30;68.00
19039;DHT22;9652;49.014;12.052;2022-12-10T07:18:18;6.30;68.90
19039;DHT22;9652;49.014;12.052;2022-12-10T07:20:47;6.30;68.00
19039;DHT22;9652;49.014;12.052;2022-12-10T07:23:14;6.30;67.80
19039;DHT22;9652;49.014;12.052;2022-12-10T07:25:41;6.40;67.90
19039;DHT22;9652;49.014;12.052;2022-12-10T07:28:09;6.40;67.70
19039;DHT22;9652;49.014;12.052;2022-12-10T07:30:36;6.40;67.60
19039;DHT22;9652;49.014;12.052;2022-12-10T07:33:04;6.40;67.70
19039;DHT22;9652;49.014;12.052;2022-12-10T07:35:31;6.40;67.70
19039;DHT22;9652;49.014;12.052;2022-12-10T07:37:58;6.40;67.80
19039;DHT22;9652;49.014;12.052;2022-12-10T07:40:25;6.40;67.90
19039;DHT22;9652;49.014;12.052;2022-12-10T07:42:52;6.40;67.90
19039;DHT22;9652;49.014;12.052;2022-12-10T07:45:20;6.40;67.80
19039;DHT22;9652;49.014;12.052;2022-12-10T07:47:48;6.50;67.90
19039;DHT22;9652;49.014;12.052;2022-12-10T07:50:15;6.40;67.90
19039;DHT22;9652;49.014;12.052;2022-12-10T07:52:42;6.40;67.70
19039;DHT22;9652;49.014;12.052;2022-12-10T07:55:09;6.40;67.70
19039;DHT22;9652;49.014;12.052;2022-12-10T07:57:36;6.50;67.70
19039;DHT22;9652;49.014;12.052;2022-12-10T08:00:04;6.50;67.60
19039;DHT22;9652;49.014;12.052;2022-12-10T08:02:39;6.50;67.60
19039;DHT22;9652;49.014;12.052;2022-12-10T08:05:06;6.40;67.60
19039;DHT22;9652;49.014;12.052;2022-12-10T08:07:34;6.50;67.70
19039;DHT22;9652;49.014;12.052;2022-12-10T08:10:01;6.50;67.80
19039;DHT22;9652;49.014;12.052;2022-12-10T08:12:29;6.50;67.80
19039;DHT22;9652;49.014;12.052;2022-12-10T08:14:56;6.50;67.90
19039;DHT22;9652;49.014;12.052;2022-12-10T08:17:23;6.50;67.90
19039;DHT22;9652;49.014;12.052;2022-12-10T08:19:53;6.50;67.90
19039;DHT22;9652;49.014;12.052;2022-12-10T08:22:20;6.50;67.90
19039;DHT22;9652;49.014;12.052;2022-12-10T08:24:47;6.50;67.90
19039;DHT22;9652;49.014;12.052;2022-12-10T08:27:15;6.60;67.70
19039;DHT22;9652;49.014;12.052;2022-12-10T08:29:42;6.60;67.60
19039;DHT22;9652;49.014;12.052;2022-12-10T08:32:09;6.60;67.50
19039;DHT22;9652;49.014;12.052;2022-12-10T08:34:36;6.60;67.40
19039;DHT22;9652;49.014;12.052;2022-12-10T08:37:05;6.60;67.60
19039;DHT22;9652;49.014;12.052;2022-12-10T08:39:32;6.50;67.60
19039;DHT22;9652;49.014;12.052;2022-12-10T08:41:59;6.50;67.70
19039;DHT22;9652;49.014;12.052;2022-12-10T08:44:26;6.60;68.00
19039;DHT22;9652;49.014;12.052;2022-12-10T08:46:53;6.60;68.10
19039;DHT22;9652;49.014;12.052;2022-12-10T08:49:21;6.70;68.00
19039;DHT22;9652;49.014;12.052;2022-12-10T08:51:48;6.70;67.90
19039;DHT22;9652;49.014;12.052;2022-12-10T08:54:16;6.70;67.60
19039;DHT22;9652;49.014;12.052;2022-12-10T08:56:43;6.70;67.60
19039;DHT22;9652;49.014;12.052;2022-12-10T08:59:10;6.80;68.40
19039;DHT22;9652;49.014;12.052;2022-12-10T09:01:38;6.80;67.80
19039;DHT22;9652;49.014;12.052;2022-12-10T09:04:06;6.80;67.90
19039;DHT22;9652;49.014;12.052;2022-12-10T09:06:33;6.80;67.90
19039;DHT22;9652;49.014;12.052;2022-12-10T09:09:00;6.90;67.90
19039;DHT22;9652;49.014;12.052;2022-12-10T09:11:31;6.90;67.80
19039;DHT22;9652;49.014;12.052;2022-12-10T09:14:00;7.00;67.60
19039;DHT22;9652;49.014;12.052;2022-12-10T09:16:29;7.00;67.60
19039;DHT22;9652;49.014;12.052;2022-12-10T09:18:57;7.00;67.60
19039;DHT22;9652;49.014;12.052;2022-12-10T09:21:27;7.00;67.50
19039;DHT22;9652;49.014;12.052;2022-12-10T09:23:55;7.10;67.40
19039;DHT22;9652;49.014;12.052;2022-12-10T09:26:23;7.10;67.20
19039;DHT22;9652;49.014;12.052;2022-12-10T09:28:52;7.00;66.90
19039;DHT22;9652;49.014;12.052;2022-12-10T09:31:20;7.10;66.80
19039;DHT22;9652;49.014;12.052;2022-12-10T09:33:49;7.00;66.80
19039;DHT22;9652;49.014;12.052;2022-12-10T09:36:18;7.00;66.70
19039;DHT22;9652;49.014;12.052;2022-12-10T09:38:47;7.00;66.80
19039;DHT22;9652;49.014;12.052;2022-12-10T09:41:32;7.00;66.70
19039;DHT22;9652;49.014;12.052;2022-12-10T09:44:35;7.00;67.40
19039;DHT22;9652;49.014;12.052;2022-12-10T09:47:10;7.00;66.60
19039;DHT22;9652;49.014;12.052;2022-12-10T09:49:53;7.00;66.70
19039;DHT22;9652;49.014;12.052;2022-12-10T09:52:35;7.00;67.00
19039;DHT22;9652;49.014;12.052;2022-12-10T09:55:10;7.00;67.20
19039;DHT22;9652;49.014;12.052;2022-12-10T09:57:43;7.00;67.60
19039;DHT22;9652;49.014;12.052;2022-12-10T10:00:21;7.10;67.50
19039;DHT22;9652;49.014;12.052;2022-12-10T10:02:50;7.10;67.40
19039;DHT22;9652;49.014;12.052;2022-12-10T10:05:21;7.20;67.60
19039;DHT22;9652;49.014;12.052;2022-12-10T10:07:52;7.20;67.10
19039;DHT22;9652;49.014;12.052;2022-12-10T10:10:24;7.20;66.90
19039;DHT22;9652;49.014;12.052;2022-12-10T10:12:55;7.20;66.70
19039;DHT22;9652;49.014;12.052;2022-12-10T10:15:30;7.20;66.70
19039;DHT22;9652;49.014;12.052;2022-12-10T10:18:02;7.20;66.90
19039;DHT22;9652;49.014;12.052;2022-12-10T10:20:36;7.30;67.00
19039;DHT22;9652;49.014;12.052;2022-12-10T10:23:03;7.30;67.10
19039;DHT22;9652;49.014;12.052;2022-12-10T10:25:30;7.40;67.30
19039;DHT22;9652;49.014;12.052;2022-12-10T10:27:58;7.40;67.50
19039;DHT22;9652;49.014;12.052;2022-12-10T10:30:27;7.50;67.40
19039;DHT22;9652;49.014;12.052;2022-12-10T10:32:57;7.60;67.20
19039;DHT22;9652;49.014;12.052;2022-12-10T10:35:30;7.60;66.90
19039;DHT22;9652;49.014;12.052;2022-12-10T10:38:01;7.60;66.50
19039;DHT22;9652;49.014;12.052;2022-12-10T10:40:39;7.70;66.10
19039;DHT22;9652;49.014;12.052;2022-12-10T10:43:14;7.70;66.00
19039;DHT22;9652;49.014;12.052;2022-12-10T10:45:51;7.70;65.80
19039;DHT22;9652;49.014;12.052;2022-12-10T10:48:22;7.70;65.90
19039;DHT22;9652;49.014;12.052;2022-12-10T10:50:53;7.60;65.80
19039;DHT22;9652;49.014;12.052;2022-12-10T10:53:30;7.60;66.00
19039;DHT22;9652;49.014;12.052;2022-12-10T10:56:05;7.60;65.60
19039;DHT22;9652;49.014;12.052;2022-12-10T10:58:34;7.60;65.60
19039;DHT22;9652;49.014;12.052;2022-12-10T11:01:05;7.60;65.70
19039;DHT22;9652;49.014;12.052;2022-12-10T11:03:35;7.60;65.60
19039;DHT22;9652;49.014;12.052;2022-12-10T11:06:06;7.50;65.70
19039;DHT22;9652;49.014;12.052;2022-12-10T11:08:37;7.50;65.80
19039;DHT22;9652;49.014;12.052;2022-12-10T11:11:09;7.50;65.90
19039;DHT22;9652;49.014;12.052;2022-12-10T11:13:39;7.50;66.10
19039;DHT22;9652;49.014;12.052;2022-12-10T11:16:16;7.50;66.30
19039;DHT22;9652;49.014;12.052;2022-12-10T11:18:53;7.60;66.30
19039;DHT22;9652;49.014;12.052;2022-12-10T11:21:23;7.60;66.30
19039;DHT22;9652;49.014;12.052;2022-12-10T11:23:53;7.60;66.30
19039;DHT22;9652;49.014;12.052;2022-12-10T11:26:49;7.70;66.10
19039;DHT22;9652;49.014;12.052;2022-12-10T11:29:34;7.70;65.90
19039;DHT22;9652;49.014;12.052;2022-12-10T11:32:32;7.70;66.20
19039;DHT22;9652;49.014;12.052;2022-12-10T11:35:14;7.80;66.20
19039;DHT22;9652;49.014;12.052;2022-12-10T11:37:51;7.80;66.10
19039;DHT22;9652;49.014;12.052;2022-12-10T11:40:35;7.90;65.90
19039;DHT22;9652;49.014;12.052;2022-12-10T11:43:24;7.90;65.90
19039;DHT22;9652;49.014;12.052;2022-12-10T11:46:11;7.90;66.00
19039;DHT22;9652;49.014;12.052;2022-12-10T11:49:03;8.00;66.10
19039;DHT22;9652;49.014;12.052;2022-12-10T11:51:44;8.00;65.80
19039;DHT22;9652;49.014;12.052;2022-12-10T11:54:31;8.00;65.60
19039;DHT22;9652;49.014;12.052;2022-12-10T11:57:26;8.10;65.40
19039;DHT22;9652;49.014;12.052;2022-12-10T12:00:13;8.10;65.40
19039;DHT22;9652;49.014;12.052;2022-12-10T12:03:06;8.10;65.70
19039;DHT22;9652;49.014;12.052;2022-12-10T12:06:04;8.20;65.50
19039;DHT22;9652;49.014;12.052;2022-12-10T12:08:55;8.20;65.50
19039;DHT22;9652;49.014;12.052;2022-12-10T12:11:36;8.20;65.40
19039;DHT22;9652;49.014;12.052;2022-12-10T12:14:23;8.30;65.40
19039;DHT22;9652;49.014;12.052;2022-12-10T12:17:02;8.20;65.40
19039;DHT22;9652;49.014;12.052;2022-12-10T12:19:37;8.30;65.40
19039;DHT22;9652;49.014;12.052;2022-12-10T12:22:15;8.30;65.40
19039;DHT22;9652;49.014;12.052;2022-12-10T12:24:49;8.30;65.40
19039;DHT22;9652;49.014;12.052;2022-12-10T12:27:25;8.40;65.50
19039;DHT22;9652;49.014;12.052;2022-12-10T12:30:02;8.40;65.40
19039;DHT22;9652;49.014;12.052;2022-12-10T12:32:39;8.40;65.40
19039;DHT22;9652;49.014;12.052;2022-12-10T12:35:16;8.40;65.20
19039;DHT22;9652;49.014;12.052;2022-12-10T12:37:53;8.50;65.00
19039;DHT22;9652;49.014;12.052;2022-12-10T12:40:28;8.50;64.90
19039;DHT22;9652;49.014;12.052;2022-12-10T12:42:59;8.40;65.50
19039;DHT22;9652;49.014;12.052;2022-12-10T12:45:33;8.50;64.90
19039;DHT22;9652;49.014;12.052;2022-12-10T12:48:12;8.50;64.70
19039;DHT22;9652;49.014;12.052;2022-12-10T12:50:47;8.50;64.50
19039;DHT22;9652;49.014;12.052;2022-12-10T12:53:21;8.40;64.20
19039;DHT22;9652;49.014;12.052;2022-12-10T12:55:56;8.40;64.20
19039;DHT22;9652;49.014;12.052;2022-12-10T12:58:41;8.30;64.20
19039;DHT22;9652;49.014;12.052;2022-12-10T13:01:23;8.40;64.30
19039;DHT22;9652;49.014;12.052;2022-12-10T13:03:56;8.40;64.40
19039;DHT22;9652;49.014;12.052;2022-12-10T13:06:26;8.30;64.50
19039;DHT22;9652;49.014;12.052;2022-12-10T13:09:18;8.30;64.50
19039;DHT22;9652;49.014;12.052;2022-12-10T13:12:24;8.30;63.80
19039;DHT22;9652;49.014;12.052;2022-12-10T13:15:02;8.30;64.00
19039;DHT22;9652;49.014;12.052;2022-12-10T13:18:02;8.30;64.30
19039;DHT22;9652;49.014;12.052;2022-12-10T13:20:55;8.30;64.20
19039;DHT22;9652;49.014;12.052;2022-12-10T13:24:09;8.40;64.50
19039;DHT22;9652;49.014;12.052;2022-12-10T13:27:03;8.40;64.00
19039;DHT22;9652;49.014;12.052;2022-12-10T13:29:45;8.30;64.50
19039;DHT22;9652;49.014;12.052;2022-12-10T13:32:19;8.30;64.10
19039;DHT22;9652;49.014;12.052;2022-12-10T13:35:18;8.40;64.20
19039;DHT22;9652;49.014;12.052;2022-12-10T13:37:56;8.30;63.40
19039;DHT22;9652;49.014;12.052;2022-12-10T13:40:38;8.30;63.90
19039;DHT22;9652;49.014;12.052;2022-12-10T13:43:29;8.30;63.80
19039;DHT22;9652;49.014;12.052;2022-12-10T13:46:26;8.30;63.80
19039;DHT22;9652;49.014;12.052;2022-12-10T13:48:58;8.30;63.80
19039;DHT22;9652;49.014;12.052;2022-12-10T13:51:47;8.30;63.70
19039;DHT22;9652;49.014;12.052;2022-12-10T13:57:47;8.20;63.30
19039;DHT22;9652;49.014;12.052;2022-12-10T14:00:39;8.20;63.50
19039;DHT22;9652;49.014;12.052;2022-12-10T14:03:35;8.20;63.60
19039;DHT22;9652;49.014;12.052;2022-12-10T14:06:24;8.20;63.40
19039;DHT22;9652;49.014;12.052;2022-12-10T14:08:59;8.20;63.80
19039;DHT22;9652;49.014;12.052;2022-12-10T14:11:32;8.10;63.60
19039;DHT22;9652;49.014;12.052;2022-12-10T14:14:05;8.10;63.70
19039;DHT22;9652;49.014;12.052;2022-12-10T14:16:38;8.10;63.60
19039;DHT22;9652;49.014;12.052;2022-12-10T14:19:11;8.10;63.50
19039;DHT22;9652;49.014;12.052;2022-12-10T14:21:42;8.00;63.40
19039;DHT22;9652;49.014;12.052;2022-12-10T14:24:32;8.00;63.40
19039;DHT22;9652;49.014;12.052;2022-12-10T14:27:09;7.90;63.20
19039;DHT22;9652;49.014;12.052;2022-12-10T14:29:43;7.90;63.60
19039;DHT22;9652;49.014;12.052;2022-12-10T14:32:14;7.90;63.60
19039;DHT22;9652;49.014;12.052;2022-12-10T14:34:43;7.80;63.80
19039;DHT22;9652;49.014;12.052;2022-12-10T14:37:16;7.80;63.90
19039;DHT22;9652;49.014;12.052;2022-12-10T14:39:48;7.80;64.00
19039;DHT22;9652;49.014;12.052;2022-12-10T14:42:16;7.70;64.00
19039;DHT22;9652;49.014;12.052;2022-12-10T14:44:45;7.70;63.90
19039;DHT22;9652;49.014;12.052;2022-12-10T14:47:17;7.70;63.90
19039;DHT22;9652;49.014;12.052;2022-12-10T14:49:47;7.70;64.10
19039;DHT22;9652;49.014;12.052;2022-12-10T14:52:20;7.70;64.10
19039;DHT22;9652;49.014;12.052;2022-12-10T14:54:51;7.60;63.90
19039;DHT22;9652;49.014;12.052;2022-12-10T14:57:23;7.60;63.90
19039;DHT22;9652;49.014;12.052;2022-12-10T14:59:59;7.60;63.90
19039;DHT22;9652;49.014;12.052;2022-12-10T15:02:35;7.60;63.80
19039;DHT22;9652;49.014;12.052;2022-12-10T15:05:15;7.50;63.80
19039;DHT22;9652;49.014;12.052;2022-12-10T15:07:52;7.50;63.70
19039;DHT22;9652;49.014;12.052;2022-12-10T15:10:32;7.50;63.80
19039;DHT22;9652;49.014;12.052;2022-12-10T15:13:12;7.40;63.60
19039;DHT22;9652;49.014;12.052;2022-12-10T15:15:51;7.40;63.90
19039;DHT22;9652;49.014;12.052;2022-12-10T15:18:27;7.40;64.10
19039;DHT22;9652;49.014;12.052;2022-12-10T15:21:10;7.30;64.00
19039;DHT22;9652;49.014;12.052;2022-12-10T15:24:09;7.30;64.10
19039;DHT22;9652;49.014;12.052;2022-12-10T15:26:48;7.30;64.20
19039;DHT22;9652;49.014;12.052;2022-12-10T15:29:35;7.30;64.40
19039;DHT22;9652;49.014;12.052;2022-12-10T15:32:10;7.30;64.40
19039;DHT22;9652;49.014;12.052;2022-12-10T15:34:45;7.30;64.60
19039;DHT22;9652;49.014;12.052;2022-12-10T15:37:23;7.30;64.60
19039;DHT22;9652;49.014;12.052;2022-12-10T15:39:54;7.30;64.80
19039;DHT22;9652;49.014;12.052;2022-12-10T15:42:37;7.30;64.80
19039;DHT22;9652;49.014;12.052;2022-12-10T15:45:18;7.30;64.80
19039;DHT22;9652;49.014;12.052;2022-12-10T15:47:49;7.30;64.80
19039;DHT22;9652;49.014;12.052;2022-12-10T15:50:17;7.30;64.80
19039;DHT22;9652;49.014;12.052;2022-12-10T15:52:45;7.30;64.60
19039;DHT22;9652;49.014;12.052;2022-12-10T15:55:14;7.20;64.60
19039;DHT22;9652;49.014;12.052;2022-12-10T15:57:45;7.20;64.70
19039;DHT22;9652;49.014;12.052;2022-12-10T16:00:18;7.20;64.80
19039;DHT22;9652;49.014;12.052;2022-12-10T16:02:48;7.20;64.90
19039;DHT22;9652;49.014;12.052;2022-12-10T16:05:22;7.10;64.90
19039;DHT22;9652;49.014;12.052;2022-12-10T16:07:56;7.10;64.90
19039;DHT22;9652;49.014;12.052;2022-12-10T16:10:29;7.10;64.80
19039;DHT22;9652;49.014;12.052;2022-12-10T16:13:01;7.10;65.00
19039;DHT22;9652;49.014;12.052;2022-12-10T16:15:33;7.10;65.30
19039;DHT22;9652;49.014;12.052;2022-12-10T16:18:11;7.00;65.20
19039;DHT22;9652;49.014;12.052;2022-12-10T16:20:41;7.00;65.10
19039;DHT22;9652;49.014;12.052;2022-12-10T16:23:10;7.00;65.20
19039;DHT22;9652;49.014;12.052;2022-12-10T16:25:42;7.00;65.20